Weather History for KMML - March, 2014

Change the Weather History Date:

Wednesday, March 26, 2014

  Actual Average Record
Temperature  
Mean Temperature 38 °F -  
Max Temperature 57 °F 46 °F 78 °F (2007)
Min Temperature 19 °F 25 °F 0 °F (1964)
Degree Days  
Heating Degree Days 27    
Moisture  
Dew Point 21 °F    
Average Humidity 50    
Maximum Humidity 74    
Minimum Humidity 33    
Precipitation  
Precipitation 0.00 in - - ()
Sea Level Pressure  
Sea Level Pressure 29.70 in    
Wind  
Wind Speed 15 mph (South)    
Max Wind Speed 32 mph    
Max Gust Speed 40 mph    
Visibility 10 miles    
Events      
Averages and records for this station are not official NWS values.
T = Trace of Precipitation, MM = Missing Value Source: NWS Daily Summary

Daily Weather History Graph

Daily Weather History Graph

Search for Another Location

Airport or City:

Trip Planner

Search our weather history database for the weather conditions in past years. The results will help you decide how hot, cold, wet, or windy it might be!

Date:

Astronomy

Mar. 26, 2014 Rise Set
Actual Time 7:15 AM CDT 7:43 PM CDT
Civil Twilight 6:46 AM CDT 8:12 PM CDT
Nautical Twilight 6:11 AM CDT 8:46 PM CDT
Astronomical Twilight 5:36 AM CDT 9:22 PM CDT
Moon 4:34 AM CDT (3/26) 3:13 PM CDT (3/26)
Length of Visible Light 13h 26m
Length of Day
12h 27m
Waning Crescent, 21% of the Moon is Illuminated
Mar 26
Waning Crescent
Mar 30
New
Apr 7
First Quarter
Apr 15
Full
Apr 22
Last Quarter

Hourly Weather History & Observations

Time (CDT) Temp. Windchill Dew Point Humidity Pressure Visibility Wind Dir Wind Speed Gust Speed Precip Events Conditions
12:15 AM 19.4 °F 9.5 °F 10.4 °F 68% 30.08 in 10.0 mi SSE 8.1 mph - N/A   Clear
12:35 AM 19.4 °F 11.5 °F 10.4 °F 68% 30.06 in 10.0 mi SE 5.8 mph - N/A   Clear
12:55 AM 19.4 °F 9.5 °F 12.2 °F 74% 30.06 in 10.0 mi South 8.1 mph - N/A   Clear
1:15 AM 19.4 °F 8.6 °F 10.4 °F 68% 30.06 in 10.0 mi South 9.2 mph - N/A   Clear
1:35 AM 19.4 °F 7.9 °F 10.4 °F 68% 30.05 in 10.0 mi South 10.4 mph - N/A   Clear
1:55 AM 19.4 °F 9.5 °F 10.4 °F 68% 30.05 in 10.0 mi SSE 8.1 mph - N/A   Clear
2:15 AM 19.4 °F 8.6 °F 10.4 °F 68% 30.05 in 10.0 mi South 9.2 mph - N/A   Clear
2:35 AM 19.4 °F 9.5 °F 10.4 °F 68% 30.03 in 10.0 mi SSE 8.1 mph - N/A   Clear
2:55 AM 21.2 °F 11.7 °F 10.4 °F 63% 30.03 in 10.0 mi South 8.1 mph - N/A   Scattered Clouds
3:15 AM 21.2 °F 10.9 °F 10.4 °F 63% 30.03 in 10.0 mi South 9.2 mph - N/A   Overcast
3:35 AM 21.2 °F 10.1 °F 10.4 °F 63% 30.01 in 10.0 mi SSE 10.4 mph - N/A   Scattered Clouds
3:55 AM 21.2 °F 9.5 °F 10.4 °F 63% 30.00 in 10.0 mi SSE 11.5 mph - N/A   Scattered Clouds
4:15 AM 21.2 °F 10.9 °F 10.4 °F 63% 30.00 in 10.0 mi SSE 9.2 mph - N/A   Mostly Cloudy
4:35 AM 21.2 °F 10.1 °F 10.4 °F 63% 29.99 in 10.0 mi SSE 10.4 mph - N/A   Scattered Clouds
4:55 AM 23.0 °F 11.1 °F 8.6 °F 54% 29.98 in 10.0 mi South 12.7 mph - N/A   Scattered Clouds
5:15 AM 24.8 °F 13.4 °F 8.6 °F 50% 29.97 in 10.0 mi SSE 12.7 mph - N/A   Overcast
5:35 AM 24.8 °F 13.4 °F 10.4 °F 54% 29.94 in 10.0 mi SSE 12.7 mph - N/A   Overcast
5:55 AM 24.8 °F 13.4 °F 10.4 °F 54% 29.93 in 10.0 mi SSE 12.7 mph - N/A   Overcast
6:15 AM 24.8 °F 12.9 °F 8.6 °F 50% 29.93 in 10.0 mi SSE 13.8 mph - N/A   Overcast
6:35 AM 24.8 °F 12.9 °F 8.6 °F 50% 29.91 in 10.0 mi SSE 13.8 mph - N/A   Scattered Clouds
6:55 AM 24.8 °F 12.4 °F 8.6 °F 50% 29.90 in 10.0 mi SSE 15.0 mph - N/A   Clear
7:15 AM 24.8 °F 11.9 °F 10.4 °F 54% 29.90 in 10.0 mi SSE 16.1 mph - N/A   Clear
7:35 AM 24.8 °F 12.4 °F 8.6 °F 50% 29.89 in 10.0 mi SSE 15.0 mph - N/A   Clear
7:55 AM 24.8 °F 11.5 °F 8.6 °F 50% 29.88 in 10.0 mi SSE 17.3 mph - N/A   Clear
8:15 AM 26.6 °F 13.8 °F 8.6 °F 47% 29.87 in 10.0 mi SSE 17.3 mph - N/A   Clear
8:35 AM 26.6 °F 13.8 °F 8.6 °F 47% 29.86 in 10.0 mi SSE 17.3 mph 23.0 mph N/A   Clear
8:55 AM 28.4 °F 16.6 °F 10.4 °F 47% 29.84 in 10.0 mi SSE 16.1 mph - N/A   Clear
9:15 AM 30.2 °F 18.1 °F 10.4 °F 44% 29.82 in 10.0 mi SSE 18.4 mph 25.3 mph N/A   Clear
9:35 AM 30.2 °F 17.8 °F 12.2 °F 47% 29.80 in 10.0 mi SSE 19.6 mph 26.5 mph N/A   Clear
9:55 AM 33.8 °F 22.2 °F 12.2 °F 41% 29.79 in 10.0 mi SSE 20.7 mph - N/A   Clear
10:15 AM 35.6 °F 24.5 °F 14.0 °F 41% 29.77 in 10.0 mi South 20.7 mph 28.8 mph N/A   Clear
10:35 AM 37.4 °F 25.4 °F 17.6 °F 45% 29.76 in 10.0 mi South 27.6 mph 35.7 mph N/A   Clear
10:55 AM 39.2 °F 27.6 °F 15.8 °F 39% 29.75 in 10.0 mi South 28.8 mph 38.0 mph N/A   Clear
11:15 AM 41.0 °F 30.7 °F 17.6 °F 39% 29.73 in 10.0 mi South 25.3 mph 32.2 mph N/A   Clear
11:35 AM 42.8 °F 33.3 °F 19.4 °F 39% 29.72 in 10.0 mi South 24.2 mph 34.5 mph N/A   Clear
11:55 AM 44.6 °F 34.9 °F 21.2 °F 39% 29.71 in 10.0 mi South 28.8 mph 36.8 mph N/A   Clear
12:15 PM 46.4 °F 38.3 °F 21.2 °F 37% 29.70 in 10.0 mi South 23.0 mph 35.7 mph N/A   Clear
12:35 PM 46.4 °F 37.0 °F 23.0 °F 40% 29.68 in 10.0 mi South 31.1 mph 39.1 mph N/A   Clear
12:55 PM 48.2 °F - 23.0 °F 37% 29.66 in 10.0 mi South 27.6 mph 33.4 mph N/A   Clear
1:15 PM 50.0 °F - 24.8 °F 37% 29.64 in 10.0 mi South 26.5 mph 34.5 mph N/A   Clear
1:35 PM 50.0 °F - 24.8 °F 37% 29.63 in 10.0 mi South 28.8 mph 36.8 mph N/A   Clear
1:55 PM 51.8 °F - 24.8 °F 35% 29.60 in 10.0 mi South 29.9 mph 39.1 mph N/A   Clear
2:15 PM 53.6 °F - 26.6 °F 35% 29.58 in 10.0 mi South 25.3 mph 36.8 mph N/A   Clear
2:35 PM 53.6 °F - 26.6 °F 35% 29.57 in 10.0 mi South 23.0 mph 35.7 mph N/A   Clear
2:55 PM 53.6 °F - 26.6 °F 35% 29.56 in 10.0 mi South 25.3 mph 35.7 mph N/A   Clear
3:15 PM 55.4 °F - 28.4 °F 36% 29.54 in 10.0 mi South 31.1 mph 38.0 mph N/A   Clear
3:35 PM 55.4 °F - 28.4 °F 36% 29.54 in 10.0 mi South 27.6 mph 38.0 mph N/A   Clear
3:55 PM 55.4 °F - 28.4 °F 36% 29.52 in 10.0 mi South 27.6 mph 39.1 mph N/A   Clear
4:15 PM 55.4 °F - 28.4 °F 36% 29.51 in 10.0 mi South 32.2 mph 40.3 mph N/A   Clear
4:35 PM 55.4 °F - 28.4 °F 36% 29.50 in 10.0 mi South 26.5 mph 34.5 mph N/A   Clear
4:55 PM 57.2 °F - 30.2 °F 36% 29.49 in 10.0 mi South 25.3 mph 35.7 mph N/A   Clear
5:15 PM 57.2 °F - 28.4 °F 33% 29.47 in 10.0 mi South 21.9 mph 32.2 mph N/A   Clear
5:35 PM 57.2 °F - 30.2 °F 36% 29.46 in 10.0 mi South 20.7 mph 29.9 mph N/A   Clear
5:55 PM 57.2 °F - 30.2 °F 36% 29.44 in 10.0 mi South 20.7 mph 25.3 mph N/A   Clear
6:15 PM 57.2 °F - 30.2 °F 36% 29.43 in 10.0 mi SSE 17.3 mph 24.2 mph N/A   Clear
6:35 PM 57.2 °F - 30.2 °F 36% 29.42 in 10.0 mi SSE 18.4 mph - N/A   Clear
6:55 PM 55.4 °F - 30.2 °F 38% 29.41 in 10.0 mi SSE 19.6 mph - N/A   Clear
7:15 PM 53.6 °F - 32.0 °F 44% 29.40 in 10.0 mi SE 12.7 mph - N/A   Clear
7:35 PM 53.6 °F - 32.0 °F 44% 29.40 in 10.0 mi SSE 15.0 mph - N/A   Clear
7:55 PM 51.8 °F - 30.2 °F 44% 29.40 in 10.0 mi SE 11.5 mph - N/A   Clear
8:15 PM 50.0 °F - 32.0 °F 50% 29.39 in 10.0 mi SE 13.8 mph - N/A   Clear
8:35 PM 48.2 °F - 32.0 °F 54% 29.39 in 10.0 mi SE 15.0 mph - N/A   Clear
8:55 PM 48.2 °F - 33.8 °F 58% 29.39 in 10.0 mi South 16.1 mph - N/A   Clear
9:15 PM 51.8 °F - 37.4 °F 58% 29.39 in 10.0 mi South 18.4 mph 24.2 mph N/A   Clear
9:35 PM 51.8 °F - 37.4 °F 58% 29.40 in 10.0 mi South 19.6 mph 24.2 mph N/A   Clear
9:55 PM 50.0 °F - 37.4 °F 62% 29.39 in 10.0 mi South 18.4 mph 29.9 mph N/A   Clear
10:15 PM 48.2 °F - 37.4 °F 66% 29.39 in 10.0 mi South 23.0 mph 29.9 mph N/A   Clear
10:35 PM 48.2 °F - 37.4 °F 66% 29.40 in 10.0 mi South 21.9 mph 29.9 mph N/A   Clear
10:55 PM 48.2 °F - 37.4 °F 66% 29.40 in 10.0 mi SSW 23.0 mph 29.9 mph N/A   Clear
11:15 PM 46.4 °F 37.9 °F 37.4 °F 71% 29.39 in 10.0 mi SSW 25.3 mph 31.1 mph N/A   Clear
11:35 PM 46.4 °F 38.3 °F 37.4 °F 71% 29.39 in 10.0 mi SSW 23.0 mph 31.1 mph N/A   Partly Cloudy
11:55 PM 46.4 °F 38.3 °F 37.4 °F 71% 29.40 in 10.0 mi SSW 23.0 mph 33.4 mph N/A   Mostly Cloudy